.
WxDataArchive / Data Records for 2011-08-24
2011-08-23 August 2011 2011-08-25

Data Records for Wednesday, 24 August 2011

Time	Temp	Chill	HIndex	Humid	Dewpt	 Wind 	HiWind	WindDir	Rain 	Barom 
-----	----	-----	------	-----	-----	------	------	-------	-----	----- 
00:00	71.1	71.1	71.1	72	61.6	1	3	90	0.00	29.789 
00:05	71.1	71.1	71.1	72	61.6	0	2	90	0.00	29.789 
00:10	71.1	71.1	71.1	72	61.6	0	2	90	0.00	29.789 
00:15	70.9	70.9	70.9	72	61.4	1	4	90	0.00	29.777 
00:20	70.9	70.9	70.9	72	61.4	1	3	112	0.00	29.777 
00:25	70.9	70.9	70.9	72	61.4	1	4	90	0.00	29.777 
00:30	70.8	70.8	70.8	73	61.7	0	1	90	0.00	29.799 
00:35	70.8	70.8	70.8	74	62.1	0	2	135	0.01	29.799 
00:40	70.4	70.4	70.4	78	63.2	0	1	135	0.02	29.799 
00:45	69.8	69.8	69.8	81	63.7	0	0	---	0.01	29.791 
00:50	69.1	69.1	69.1	83	63.7	1	3	135	0.00	29.791 
00:55	68.6	68.6	68.6	84	63.6	2	6	90	0.00	29.791 
01:00	68.3	68.3	68.3	85	63.6	1	6	112	0.00	29.776 
01:05	67.9	67.9	67.9	86	63.5	1	4	135	0.00	29.776 
01:10	67.8	67.8	67.8	87	63.8	2	4	68	0.02	29.776 
01:15	67.6	67.6	67.6	88	63.9	0	4	45	0.01	29.789 
01:20	67.4	67.4	67.4	88	63.7	0	2	45	0.01	29.789 
01:25	67.3	67.3	67.3	89	63.9	0	1	45	0.00	29.789 
01:30	67.1	67.1	67.1	90	64.1	0	4	45	0.00	29.816 
01:35	66.9	66.9	66.9	90	63.9	1	3	90	0.00	29.816 
01:40	66.8	66.8	66.8	91	64.1	3	6	68	0.01	29.816 
01:45	66.4	66.4	66.4	91	63.7	2	5	68	0.02	29.776 
01:50	66.4	66.4	66.4	92	64.0	1	5	90	0.07	29.776 
01:55	66.3	66.3	66.3	92	63.9	1	5	90	0.02	29.776 
02:00	66.1	66.1	66.1	92	63.7	1	5	112	0.19	29.775 
02:05	66.0	66.0	66.0	93	63.9	2	6	90	0.06	29.775 
02:10	65.8	65.8	65.8	93	63.7	3	6	90	0.01	29.775 
02:15	65.6	65.6	65.6	94	63.8	2	6	90	0.00	29.758 
02:20	65.6	65.6	65.6	94	63.8	2	5	90	0.00	29.758 
02:25	65.6	65.6	65.6	94	63.8	2	6	90	0.01	29.758 
02:30	65.6	65.6	65.6	94	63.8	1	5	90	0.00	29.751 
02:35	65.6	65.6	65.6	94	63.8	0	3	68	0.02	29.751 
02:40	65.6	65.6	65.6	94	63.8	0	2	68	0.00	29.751 
02:45	65.6	65.6	65.6	94	63.8	1	3	68	0.00	29.742 
02:50	65.6	65.6	65.6	94	63.8	2	4	90	0.00	29.742 
02:55	65.6	65.6	65.6	94	63.8	1	4	90	0.00	29.742 
03:00	65.6	65.6	65.6	94	63.8	1	2	45	0.00	29.760 
03:05	65.6	65.6	65.6	94	63.8	2	4	45	0.00	29.760 
03:10	65.6	65.6	65.6	94	63.8	1	5	90	0.00	29.760 
03:15	65.6	65.6	65.6	94	63.8	1	3	180	0.00	29.766 
03:20	65.6	65.6	65.6	94	63.8	0	2	22	0.00	29.766 
03:25	65.8	65.8	65.8	94	64.0	1	5	158	0.00	29.766 
03:30	65.6	65.6	65.6	94	63.8	3	9	68	0.00	29.780 
03:35	65.6	65.6	65.6	94	63.8	3	7	68	0.00	29.780 
03:40	65.5	65.5	65.5	93	63.4	3	11	90	0.00	29.780 
03:45	65.6	65.6	65.6	93	63.5	3	5	90	0.02	29.767 
03:50	65.6	65.6	65.6	93	63.5	2	5	90	0.00	29.767 
03:55	65.6	65.6	65.6	93	63.5	2	4	68	0.00	29.767 
04:00	65.6	65.6	65.6	93	63.5	1	3	90	0.00	29.760 
04:05	65.5	65.5	65.5	93	63.4	1	5	112	0.00	29.760 
04:10	65.5	65.5	65.5	93	63.4	1	3	180	0.03	29.760 
04:15	65.5	65.5	65.5	93	63.4	0	3	68	0.01	29.780 
04:20	65.6	65.6	65.6	94	63.8	1	3	68	0.00	29.780 
04:25	65.6	65.6	65.6	94	63.8	1	2	68	0.00	29.780 
04:30	65.5	65.5	65.5	94	63.7	0	3	68	0.00	29.776 
04:35	65.5	65.5	65.5	94	63.7	0	2	68	0.00	29.776 
04:40	65.5	65.5	65.5	94	63.7	0	2	68	0.00	29.776 
04:45	65.5	65.5	65.5	94	63.7	1	6	68	0.00	29.778 
04:50	65.5	65.5	65.5	94	63.7	1	3	68	0.00	29.778 
04:55	65.5	65.5	65.5	94	63.7	1	3	68	0.00	29.778 
05:00	65.5	65.5	65.5	94	63.7	1	4	68	0.00	29.790 
05:05	65.6	65.6	65.6	94	63.8	0	2	68	0.00	29.790 
05:10	65.6	65.6	65.6	94	63.8	0	1	68	0.00	29.790 
05:15	65.6	65.6	65.6	94	63.8	0	0	---	0.00	29.779 
05:20	65.6	65.6	65.6	94	63.8	0	0	---	0.00	29.779 
05:25	65.5	65.5	65.5	95	64.0	0	1	68	0.00	29.779 
05:30	65.5	65.5	65.5	95	64.0	0	1	68	0.00	29.779 
05:35	65.5	65.5	65.5	95	64.0	0	1	68	0.00	29.779 
05:40	65.5	65.5	65.5	95	64.0	0	1	68	0.00	29.779 
05:45	65.5	65.5	65.5	95	64.0	0	0	---	0.00	29.777 
05:50	65.5	65.5	65.5	95	64.0	0	1	68	0.00	29.777 
05:55	65.5	65.5	65.5	95	64.0	0	1	68	0.00	29.777 
06:00	65.6	65.6	65.6	95	64.1	0	1	68	0.00	29.777 
06:05	65.6	65.6	65.6	95	64.1	0	0	---	0.00	29.777 
06:10	65.6	65.6	65.6	95	64.1	0	0	---	0.00	29.777 
06:15	65.6	65.6	65.6	95	64.1	0	0	---	0.00	29.777 
06:20	65.6	65.6	65.6	95	64.1	0	0	---	0.00	29.777 
06:25	65.6	65.6	65.6	95	64.1	0	1	68	0.00	29.777 
06:30	65.6	65.6	65.6	95	64.1	0	1	68	0.00	29.778 
06:35	65.6	65.6	65.6	95	64.1	0	0	---	0.00	29.778 
06:40	65.6	65.6	65.6	95	64.1	0	0	---	0.00	29.778 
06:45	65.6	65.6	65.6	95	64.1	0	0	---	0.00	29.777 
06:50	65.6	65.6	65.6	95	64.1	0	0	---	0.00	29.777 
06:55	65.6	65.6	65.6	95	64.1	0	0	---	0.00	29.777 
07:00	65.6	65.6	65.6	95	64.1	0	0	---	0.00	29.774 
07:05	65.6	65.6	65.6	95	64.1	0	0	---	0.00	29.774 
07:10	65.6	65.6	65.6	95	64.1	0	0	---	0.00	29.774 
07:15	65.6	65.6	65.6	95	64.1	0	0	---	0.00	29.774 
07:20	65.5	65.5	65.5	95	64.0	0	0	---	0.00	29.774 
07:25	65.5	65.5	65.5	95	64.0	0	0	---	0.00	29.774 
07:30	65.5	65.5	65.5	95	64.0	0	0	---	0.00	29.773 
07:35	65.5	65.5	65.5	95	64.0	0	0	---	0.00	29.773 
07:40	65.5	65.5	65.5	95	64.0	0	1	68	0.00	29.773 
07:45	65.5	65.5	65.5	95	64.0	0	0	---	0.00	29.769 
07:50	65.6	65.6	65.6	95	64.1	0	1	68	0.00	29.769 
07:55	65.8	65.8	65.8	95	64.3	0	0	---	0.00	29.769 
08:00	66.0	66.0	66.0	95	64.5	0	0	---	0.00	29.765 
08:05	66.3	66.3	66.3	95	64.8	0	0	---	0.00	29.765 
08:10	66.6	66.6	66.6	95	65.1	0	1	68	0.00	29.765 
08:15	66.6	66.6	66.6	95	65.1	0	1	68	0.00	29.764 
08:20	66.6	66.6	66.6	95	65.1	0	1	68	0.00	29.764 
08:25	67.1	67.1	67.1	95	65.6	0	0	---	0.00	29.764 
08:30	67.3	67.3	67.3	95	65.8	0	0	---	0.00	29.764 
08:35	67.6	67.6	67.6	95	66.1	0	0	---	0.00	29.764 
08:40	67.6	67.6	67.6	95	66.1	0	1	68	0.00	29.764 
08:45	67.9	67.9	67.9	94	66.1	0	0	---	0.00	29.761 
08:50	68.1	68.1	68.1	94	66.3	0	0	---	0.00	29.761 
08:55	68.3	68.3	68.3	94	66.5	0	0	---	0.00	29.761 
09:00	68.4	68.4	68.4	94	66.6	0	0	---	0.00	29.751 
09:05	68.4	68.4	68.4	94	66.6	0	1	68	0.00	29.751 
09:10	68.6	68.6	68.6	93	66.5	0	1	68	0.00	29.751 
09:15	68.9	68.9	68.9	93	66.8	0	1	68	0.00	29.755 
09:20	69.1	69.1	69.1	93	67.0	0	1	68	0.00	29.755 
09:25	69.3	69.3	69.3	92	66.9	0	2	68	0.00	29.755 
09:30	69.8	69.8	69.8	91	67.0	1	4	315	0.00	29.754 
09:35	70.3	70.3	70.3	89	66.9	0	4	225	0.00	29.754 
09:40	70.8	70.8	70.8	88	67.1	1	5	248	0.00	29.754 
09:45	71.5	71.5	71.5	87	67.4	0	2	338	0.00	29.753 
09:50	72.1	72.1	72.1	85	67.3	0	2	338	0.00	29.753 
09:55	72.8	72.8	72.8	84	67.7	0	2	338	0.00	29.753 
10:00	73.5	73.5	73.5	83	68.0	1	3	338	0.00	29.745 
10:05	74.2	74.2	74.2	81	68.0	1	3	315	0.00	29.745 
10:10	74.7	74.7	74.7	79	67.7	1	5	270	0.00	29.745 
10:15	75.3	75.3	76.2	78	68.0	1	3	270	0.00	29.743 
10:20	76.0	76.0	77.2	77	68.3	1	4	270	0.00	29.743 
10:25	76.5	76.5	78.0	76	68.4	1	4	270	0.00	29.743 
10:30	76.8	76.8	78.4	75	68.3	2	4	270	0.00	29.741 
10:35	77.4	77.4	79.3	74	68.4	2	6	270	0.00	29.741 
10:40	77.9	77.9	80.0	74	68.9	1	4	248	0.00	29.741 
10:45	78.6	78.6	81.0	73	69.2	1	4	292	0.00	29.737 
10:50	78.8	78.8	81.3	73	69.4	2	4	270	0.00	29.737 
10:55	79.4	79.4	82.1	71	69.2	1	3	270	0.00	29.737 
11:00	79.9	79.9	82.9	71	69.6	1	4	292	0.00	29.731 
11:05	80.3	80.3	83.4	70	69.6	2	5	270	0.00	29.731 
11:10	80.5	80.5	83.9	71	70.2	2	4	270	0.00	29.731 
11:15	80.7	80.7	84.1	70	70.0	2	7	248	0.00	29.728 
11:20	81.1	81.1	84.6	69	69.9	2	5	270	0.00	29.728 
11:25	81.4	81.4	85.3	70	70.7	1	4	270	0.00	29.728 
11:30	81.6	81.6	85.5	69	70.4	3	5	270	0.00	29.735 
11:35	81.8	81.8	85.9	69	70.6	1	5	248	0.00	29.735 
11:40	82.0	82.0	86.2	69	70.8	2	5	248	0.00	29.735 
11:45	82.4	82.4	87.2	70	71.6	2	4	270	0.00	29.733 
11:50	82.6	82.6	87.1	68	70.9	2	5	248	0.00	29.733 
11:55	83.0	83.0	88.1	69	71.8	2	6	270	0.00	29.733 
12:00	83.6	83.6	88.7	67	71.5	2	5	292	0.00	29.725 
12:05	84.3	84.3	89.8	66	71.7	1	4	270	0.00	29.725 
12:10	84.5	84.5	90.2	66	71.9	2	7	270	0.00	29.725 
12:15	84.9	84.9	90.7	65	71.8	1	5	338	0.00	29.721 
12:20	84.9	84.9	90.7	65	71.8	2	5	248	0.00	29.721 
12:25	85.1	85.1	91.1	65	72.0	2	4	270	0.00	29.721 
12:30	85.3	85.3	91.2	64	71.7	2	3	248	0.00	29.721 
12:35	85.5	85.5	91.9	65	72.4	2	6	248	0.00	29.721 
12:40	85.7	85.7	92.3	65	72.5	2	4	292	0.00	29.721 
12:45	85.9	85.9	92.0	63	71.8	3	6	270	0.00	29.710 
12:50	85.9	85.9	92.0	63	71.8	3	7	270	0.00	29.710 
12:55	85.9	85.9	92.4	64	72.3	3	6	270	0.00	29.710 
13:00	86.1	86.1	92.4	63	72.0	3	7	270	0.00	29.705 
13:05	86.5	86.5	94.1	65	73.3	2	4	270	0.00	29.705 
13:10	87.2	87.2	94.3	62	72.6	1	4	270	0.00	29.705 
13:15	87.2	87.2	94.3	62	72.6	3	8	270	0.00	29.707 
13:20	87.2	87.2	94.3	62	72.6	2	5	270	0.00	29.707 
13:25	87.6	87.6	95.2	62	72.9	2	5	248	0.00	29.707 
13:30	87.8	87.8	95.2	61	72.6	3	7	270	0.00	29.697 
13:35	87.8	87.8	95.6	62	73.1	2	6	270	0.00	29.697 
13:40	88.0	88.0	95.1	60	72.3	3	6	270	0.00	29.697 
13:45	88.0	88.0	95.1	60	72.3	3	7	270	0.00	29.690 
13:50	88.2	88.2	96.1	61	73.0	3	6	270	0.00	29.690 
13:55	88.6	88.6	96.0	59	72.4	3	7	270	0.00	29.690 
14:00	88.8	88.8	96.4	59	72.6	3	5	248	0.00	29.687 
14:05	89.0	89.0	96.4	58	72.3	3	6	270	0.00	29.687 
14:10	89.0	89.0	96.8	59	72.8	3	7	270	0.00	29.687 
14:15	89.5	89.5	97.4	58	72.7	3	6	270	0.00	29.677 
14:20	89.7	89.7	97.4	57	72.4	3	7	248	0.00	29.677 
14:25	89.9	89.9	98.3	58	73.1	3	7	248	0.00	29.677 
14:30	90.3	90.3	98.7	57	73.0	2	5	270	0.00	29.674 
14:35	90.5	90.5	99.2	57	73.1	2	5	270	0.00	29.674 
14:40	90.7	90.7	98.5	55	72.3	3	5	248	0.00	29.674 
14:45	91.0	91.0	99.7	56	73.1	2	5	270	0.00	29.666 
14:50	91.2	91.2	99.6	55	72.7	2	6	270	0.00	29.666 
14:55	91.4	91.4	99.5	54	72.4	3	6	270	0.00	29.666 
15:00	91.4	91.4	99.5	54	72.4	3	9	270	0.00	29.660 
15:05	91.4	91.4	99.5	54	72.4	3	9	270	0.00	29.660 
15:10	91.2	91.2	99.6	55	72.7	3	11	248	0.00	29.660 
15:15	91.4	91.4	100.1	55	72.9	3	9	270	0.00	29.653 
15:20	91.6	91.6	99.4	53	72.0	3	6	270	0.00	29.653 
15:25	92.1	92.1	101.1	54	73.0	3	7	248	0.00	29.653 
15:30	91.8	91.8	100.4	54	72.7	3	13	270	0.00	29.644 
15:35	92.3	92.3	101.5	54	73.2	2	7	270	0.00	29.644 
15:40	92.3	92.3	100.9	53	72.6	3	6	270	0.00	29.644 
15:45	92.3	92.3	100.9	53	72.6	3	10	270	0.00	29.636 
15:50	92.3	92.3	100.3	52	72.1	3	10	270	0.00	29.636 
15:55	92.3	92.3	100.3	52	72.1	3	7	270	0.00	29.636 
16:00	92.5	92.5	100.8	52	72.3	3	11	270	0.00	29.624 
16:05	92.5	92.5	101.4	53	72.8	2	9	270	0.00	29.624 
16:10	92.3	92.3	100.3	52	72.1	3	6	248	0.00	29.624 
16:15	92.3	92.3	100.3	52	72.1	3	9	270	0.00	29.626 
16:20	92.5	92.5	100.8	52	72.3	3	7	270	0.00	29.626 
16:25	92.3	92.3	100.9	53	72.6	2	9	248	0.00	29.626 
16:30	92.5	92.5	101.4	53	72.8	3	6	248	0.00	29.624 
16:35	92.3	92.3	101.5	54	73.2	3	6	270	0.00	29.624 
16:40	92.1	92.1	101.7	55	73.6	3	7	248	0.00	29.624 
16:45	92.1	92.1	101.7	55	73.6	2	7	292	0.00	29.623 
16:50	91.8	91.8	101.0	55	73.3	3	6	270	0.00	29.623 
16:55	91.6	91.6	101.1	56	73.6	2	6	270	0.00	29.623 
17:00	91.8	91.8	102.2	57	74.4	2	6	248	0.00	29.623 
17:05	91.8	91.8	101.0	55	73.3	2	4	248	0.00	29.623 
17:10	91.8	91.8	101.6	56	73.8	2	5	292	0.00	29.623 
17:15	91.6	91.6	101.1	56	73.6	2	6	270	0.00	29.627 
17:20	91.4	91.4	100.7	56	73.5	3	9	248	0.00	29.627 
17:25	91.2	91.2	100.8	57	73.8	2	4	292	0.00	29.627 
17:30	91.0	91.0	99.7	56	73.1	3	7	248	0.00	29.630 
17:35	90.7	90.7	100.2	58	73.8	3	7	248	0.00	29.630 
17:40	90.7	90.7	100.2	58	73.8	2	4	270	0.00	29.630 
17:45	90.5	90.5	98.6	56	72.6	3	6	270	0.00	29.632 
17:50	90.5	90.5	98.6	56	72.6	2	5	248	0.00	29.632 
17:55	90.3	90.3	98.7	57	73.0	2	6	270	0.00	29.632 
18:00	90.3	90.3	98.7	57	73.0	3	7	270	0.00	29.637 
18:05	90.1	90.1	98.8	58	73.3	2	5	248	0.00	29.637 
18:10	90.1	90.1	98.8	58	73.3	3	7	270	0.00	29.637 
18:15	90.1	90.1	98.8	58	73.3	2	6	270	0.00	29.634 
18:20	89.9	89.9	98.3	58	73.1	3	6	270	0.00	29.634 
18:25	89.5	89.5	98.0	59	73.2	2	5	270	0.00	29.634 
18:30	89.3	89.3	98.0	60	73.6	3	5	270	0.00	29.638 
18:35	89.3	89.3	98.0	60	73.6	2	4	248	0.00	29.638 
18:40	89.0	89.0	97.9	61	73.8	2	5	270	0.00	29.638 
18:45	89.0	89.0	97.9	61	73.8	3	9	248	0.00	29.643 
18:50	89.0	89.0	97.4	60	73.3	4	10	248	0.00	29.643 
18:55	88.8	88.8	96.9	60	73.1	3	7	270	0.00	29.643 
19:00	88.8	88.8	96.9	60	73.1	3	9	270	0.00	29.640 
19:05	88.8	88.8	96.9	60	73.1	3	7	270	0.00	29.640 
19:10	88.6	88.6	96.5	60	72.9	2	7	270	0.00	29.640 
19:15	88.4	88.4	96.5	61	73.2	3	10	270	0.00	29.641 
19:20	88.2	88.2	96.1	61	73.0	3	7	270	0.00	29.641 
19:25	88.2	88.2	96.5	62	73.5	2	6	270	0.00	29.641 
19:30	88.0	88.0	96.1	62	73.3	1	5	225	0.00	29.642 
19:35	88.0	88.0	96.1	62	73.3	2	6	292	0.00	29.642 
19:40	88.0	88.0	96.1	62	73.3	2	6	270	0.00	29.642 
19:45	88.0	88.0	96.1	62	73.3	2	7	270	0.00	29.642 
19:50	88.0	88.0	95.6	61	72.8	2	6	270	0.00	29.642 
19:55	88.0	88.0	95.6	61	72.8	2	5	270	0.00	29.642 
20:00	87.8	87.8	95.2	61	72.6	2	5	270	0.00	29.641 
20:05	87.6	87.6	95.2	62	72.9	2	5	270	0.00	29.641 
20:10	87.4	87.4	94.8	62	72.7	2	5	270	0.00	29.641 
20:15	87.2	87.2	94.3	62	72.6	2	5	270	0.00	29.640 
20:20	87.2	87.2	94.3	62	72.6	1	4	270	0.00	29.640 
20:25	87.0	87.0	93.9	62	72.4	1	4	270	0.00	29.640 
20:30	87.0	87.0	94.3	63	72.8	1	4	292	0.00	29.625 
20:35	86.7	86.7	93.7	63	72.6	1	3	292	0.00	29.625 
20:40	86.5	86.5	93.3	63	72.4	1	3	292	0.00	29.625 
20:45	86.3	86.3	93.2	64	72.7	1	2	292	0.00	29.601 
20:50	86.1	86.1	92.8	64	72.5	0	2	292	0.00	29.601 
20:55	86.1	86.1	92.8	64	72.5	1	4	292	0.00	29.601 
21:00	86.1	86.1	92.4	63	72.0	1	3	90	0.00	29.593 
21:05	85.9	85.9	92.0	63	71.8	0	2	270	0.00	29.593 
21:10	85.7	85.7	92.0	64	72.1	0	2	270	0.00	29.593 
21:15	85.7	85.7	92.0	64	72.1	0	3	270	0.00	29.590 
21:20	85.5	85.5	91.9	65	72.4	0	2	315	0.00	29.590 
21:25	85.5	85.5	91.9	65	72.4	0	3	315	0.00	29.590 
21:30	85.5	85.5	91.9	65	72.4	0	4	315	0.00	29.589 
21:35	85.3	85.3	91.5	65	72.2	1	3	338	0.00	29.589 
21:40	85.3	85.3	91.9	66	72.6	0	3	338	0.00	29.589 
21:45	85.1	85.1	92.2	68	73.3	0	1	315	0.00	29.585 
21:50	84.5	84.5	91.6	70	73.6	0	0	---	0.00	29.585 
21:55	83.6	83.6	90.9	74	74.4	1	3	315	0.04	29.585 
22:00	81.6	81.6	87.8	80	74.8	1	3	315	0.21	29.641 
22:05	79.0	79.0	82.1	79	71.9	2	6	315	0.10	29.641 
22:10	76.3	76.3	77.3	82	70.4	2	7	270	0.01	29.641 
22:15	74.6	74.6	74.6	85	69.8	1	5	270	0.00	29.660 
22:20	73.7	73.7	73.7	88	69.9	2	5	270	0.00	29.660 
22:25	73.9	73.9	73.9	90	70.8	3	10	270	0.00	29.660 
22:30	74.2	74.2	74.2	90	71.1	4	7	248	0.00	29.675 
22:35	73.7	73.7	73.7	88	69.9	4	9	270	0.00	29.675 
22:40	73.3	73.3	73.3	87	69.2	5	14	270	0.00	29.675 
22:45	73.2	73.2	73.2	84	68.1	5	11	270	0.00	29.644 
22:50	73.0	73.0	73.0	82	67.2	3	6	270	0.00	29.644 
22:55	72.8	72.8	72.8	79	65.9	2	5	248	0.00	29.644 
23:00	72.8	72.8	72.8	79	65.9	1	3	248	0.00	29.645 
23:05	73.0	73.0	73.0	80	66.5	2	7	248	0.02	29.645 
23:10	72.5	72.5	72.5	82	66.7	2	6	270	0.01	29.645 
23:15	72.1	72.1	72.1	84	67.0	1	3	270	0.00	29.701 
23:20	72.3	72.3	72.3	86	67.9	2	7	292	0.00	29.701 
23:25	72.5	72.5	72.5	87	68.4	1	3	315	0.00	29.701 
23:30	72.5	72.5	72.5	87	68.4	1	4	292	0.00	29.678 
23:35	72.1	72.1	72.1	88	68.3	1	3	292	0.00	29.678 
23:40	72.1	72.1	72.1	88	68.3	0	1	292	0.00	29.678 
23:45	72.0	72.0	72.0	88	68.2	0	1	292	0.00	29.674 
23:50	71.8	71.8	71.8	88	68.0	0	0	---	0.00	29.674 
23:55	71.5	71.5	71.5	88	67.7	0	1	292	0.00	29.674 

CoCoRaHS
IN-AL-39
A2 Web Hosting
Creative Commons License
GoDaddy
search engine by freefind advanced

loaded 2018-11-18 11:37:40 • last modified 2010-11-18 10:43:29
Privacy PolicyDisclaimer
• wx.awcolley.com is powered by PmWiki v.2002016 •
• all content (unless otherwise noted) © 2018 A W Colley